createdAt,value
2017-04-21T00:00:03.184Z,982.54
2017-04-21T00:01:11.972Z,982.5
2017-04-21T00:02:21.382Z,982.51
2017-04-21T00:03:30.471Z,982.48
2017-04-21T00:04:40.184Z,982.51
2017-04-21T00:05:49.278Z,982.46
2017-04-21T00:06:58.057Z,982.43
2017-04-21T00:08:07.436Z,982.4
2017-04-21T00:09:16.772Z,982.41
2017-04-21T00:10:26.764Z,982.36
2017-04-21T00:11:35.533Z,982.4
2017-04-21T00:12:44.630Z,982.35
2017-04-21T00:13:54.039Z,982.37
2017-04-21T00:15:03.127Z,982.33
2017-04-21T00:16:12.222Z,982.32
2017-04-21T00:17:21.309Z,982.31
2017-04-21T00:18:31.002Z,982.33
2017-04-21T00:19:40.734Z,982.31
2017-04-21T00:20:50.588Z,982.26
2017-04-21T00:21:59.998Z,982.29
2017-04-21T00:23:09.378Z,982.29
2017-04-21T00:24:18.775Z,982.28
2017-04-21T00:25:27.724Z,982.32
2017-04-21T00:26:36.494Z,982.27
2017-04-21T00:27:45.221Z,982.26
2017-04-21T00:28:54.316Z,982.22
2017-04-21T00:30:03.710Z,982.25
2017-04-21T00:31:12.790Z,982.22
2017-04-21T00:32:21.868Z,982.23
2017-04-21T00:33:30.950Z,982.21
2017-04-21T00:34:40.334Z,982.21
2017-04-21T00:35:50.032Z,982.18
2017-04-21T00:36:59.120Z,982.18
2017-04-21T00:38:07.906Z,982.15
2017-04-21T00:39:17.327Z,982.14
2017-04-21T00:40:26.720Z,982.18
2017-04-21T00:41:35.499Z,982.16
2017-04-21T00:42:44.781Z,982.16
2017-04-21T00:43:53.828Z,982.15
2017-04-21T00:45:02.916Z,982.15
2017-04-21T00:46:11.998Z,982.11
2017-04-21T00:47:21.392Z,982.11
2017-04-21T00:48:30.180Z,982.07
2017-04-21T00:49:39.231Z,982.09
2017-04-21T00:50:48.311Z,982.08
2017-04-21T00:51:57.091Z,982.06
2017-04-21T00:53:06.170Z,982.05
2017-04-21T00:54:15.556Z,982.02
2017-04-21T00:55:24.934Z,982
2017-04-21T00:56:34.277Z,982.01
2017-04-21T00:57:43.656Z,982.03
2017-04-21T00:58:53.356Z,982.03
2017-04-21T01:00:02.450Z,982.02
2017-04-21T01:01:11.842Z,982.03
2017-04-21T01:02:20.966Z,982
2017-04-21T01:03:30.063Z,982.03
2017-04-21T01:04:39.750Z,982.05
2017-04-21T01:05:48.783Z,982.06
2017-04-21T01:06:57.864Z,982.06
2017-04-21T01:08:06.956Z,982.08
2017-04-21T01:09:16.030Z,982.07
2017-04-21T01:10:25.066Z,982.09
2017-04-21T01:11:33.842Z,982.07
2017-04-21T01:12:43.556Z,982.08
2017-04-21T01:13:53.569Z,982.07
2017-04-21T01:15:02.662Z,982.07
2017-04-21T01:16:11.751Z,982.06
2017-04-21T01:17:20.838Z,982.09
2017-04-21T01:18:30.242Z,982.06
2017-04-21T01:19:39.025Z,982.11
2017-04-21T01:20:47.803Z,982.07
2017-04-21T01:21:56.572Z,982.06
2017-04-21T01:23:05.951Z,982.08
2017-04-21T01:24:15.242Z,982.05
2017-04-21T01:25:24.331Z,982.03
2017-04-21T01:26:33.108Z,982.07
2017-04-21T01:27:42.510Z,982.06
2017-04-21T01:28:51.907Z,982.08
2017-04-21T01:30:01.610Z,982.03
2017-04-21T01:31:10.385Z,982.02
2017-04-21T01:32:19.472Z,982.01
2017-04-21T01:33:28.602Z,981.96
2017-04-21T01:34:38.299Z,981.95
2017-04-21T01:35:47.090Z,981.92
2017-04-21T01:36:55.957Z,981.94
2017-04-21T01:38:05.151Z,981.86
2017-04-21T01:39:14.409Z,981.84
2017-04-21T01:40:23.736Z,981.87
2017-04-21T01:41:32.455Z,981.85
2017-04-21T01:42:41.532Z,981.82
2017-04-21T01:43:50.910Z,981.86
2017-04-21T01:45:00.248Z,981.84
2017-04-21T01:46:09.334Z,981.83
2017-04-21T01:47:18.419Z,981.84
2017-04-21T01:48:27.197Z,981.81
2017-04-21T01:49:35.971Z,981.81
2017-04-21T01:50:45.053Z,981.81
2017-04-21T01:51:54.154Z,981.79
2017-04-21T01:53:03.241Z,981.78
2017-04-21T01:54:12.014Z,981.79
2017-04-21T01:55:21.717Z,981.76
2017-04-21T01:56:30.495Z,981.77
2017-04-21T01:57:39.471Z,981.77
2017-04-21T01:58:49.171Z,981.75
2017-04-21T01:59:58.865Z,981.73
2017-04-21T02:01:07.646Z,981.77
2017-04-21T02:02:16.434Z,981.76
2017-04-21T02:03:25.214Z,981.66
2017-04-21T02:04:34.903Z,981.69
2017-04-21T02:05:43.666Z,981.68
2017-04-21T02:06:52.926Z,981.66
2017-04-21T02:08:01.710Z,981.64
2017-04-21T02:09:10.488Z,981.64
2017-04-21T02:10:19.887Z,981.6
2017-04-21T02:11:29.269Z,981.62
2017-04-21T02:12:38.037Z,981.64
2017-04-21T02:13:47.681Z,981.63
2017-04-21T02:14:56.760Z,981.61
2017-04-21T02:16:06.462Z,981.61
2017-04-21T02:17:15.537Z,981.61
2017-04-21T02:18:24.622Z,981.57
2017-04-21T02:19:34.321Z,981.57
2017-04-21T02:20:43.401Z,981.58
2017-04-21T02:21:52.492Z,981.57
2017-04-21T02:23:01.581Z,981.53
2017-04-21T02:24:11.601Z,981.52
2017-04-21T02:25:20.988Z,981.47
2017-04-21T02:26:29.754Z,981.44
2017-04-21T02:27:39.096Z,981.48
2017-04-21T02:28:48.186Z,981.47
2017-04-21T02:29:57.875Z,981.47
2017-04-21T02:31:06.955Z,981.43
2017-04-21T02:32:15.729Z,981.47
2017-04-21T02:33:24.818Z,981.48
2017-04-21T02:34:34.473Z,981.47
2017-04-21T02:35:43.505Z,981.47
2017-04-21T02:36:52.288Z,981.44
2017-04-21T02:38:01.064Z,981.39
2017-04-21T02:39:10.484Z,981.41
2017-04-21T02:40:19.868Z,981.46
2017-04-21T02:41:28.893Z,981.44
2017-04-21T02:42:37.685Z,981.44
2017-04-21T02:43:46.578Z,981.49
2017-04-21T02:44:55.960Z,981.45
2017-04-21T02:46:05.267Z,981.5
2017-04-21T02:47:14.734Z,981.43
2017-04-21T02:48:23.696Z,981.47
2017-04-21T02:49:32.939Z,981.42
2017-04-21T02:50:41.696Z,981.41
2017-04-21T02:51:50.575Z,981.41
2017-04-21T02:52:59.349Z,981.42
2017-04-21T02:54:08.435Z,981.4
2017-04-21T02:55:17.805Z,981.4
2017-04-21T02:56:26.510Z,981.38
2017-04-21T02:57:35.583Z,981.34
2017-04-21T02:58:44.913Z,981.37
2017-04-21T02:59:53.688Z,981.35
2017-04-21T03:01:03.361Z,981.33
2017-04-21T03:02:12.125Z,981.33
2017-04-21T03:03:20.887Z,981.29
2017-04-21T03:04:30.268Z,981.29
2017-04-21T03:05:39.039Z,981.31
2017-04-21T03:06:48.413Z,981.33
2017-04-21T03:07:57.178Z,981.34
2017-04-21T03:09:06.864Z,981.29
2017-04-21T03:10:16.247Z,981.29
2017-04-21T03:11:24.995Z,981.3
2017-04-21T03:12:34.010Z,981.29
2017-04-21T03:13:43.643Z,981.3
2017-04-21T03:14:52.410Z,981.29
2017-04-21T03:16:01.492Z,981.27
2017-04-21T03:17:10.578Z,981.29
2017-04-21T03:18:19.961Z,981.26
2017-04-21T03:19:29.037Z,981.24
2017-04-21T03:20:38.109Z,981.27
2017-04-21T03:21:46.876Z,981.25
2017-04-21T03:22:55.956Z,981.21
2017-04-21T03:24:04.725Z,981.23
2017-04-21T03:25:13.507Z,981.16
2017-04-21T03:26:22.276Z,981.18
2017-04-21T03:27:31.051Z,981.18
2017-04-21T03:28:39.819Z,981.23
2017-04-21T03:29:49.808Z,981.17
2017-04-21T03:30:59.191Z,981.14
2017-04-21T03:32:07.968Z,981.16
2017-04-21T03:33:17.345Z,981.17
2017-04-21T03:34:27.018Z,981.2
2017-04-21T03:35:35.782Z,981.18
2017-04-21T03:36:44.560Z,981.16
2017-04-21T03:37:53.611Z,981.18
2017-04-21T03:39:02.998Z,981.15
2017-04-21T03:40:12.371Z,981.1
2017-04-21T03:41:21.126Z,981.12
2017-04-21T03:42:30.126Z,981.12
2017-04-21T03:43:39.758Z,981.1
2017-04-21T03:44:48.825Z,981.13
2017-04-21T03:45:58.203Z,981.1
2017-04-21T03:47:07.581Z,981.11
2017-04-21T03:48:16.649Z,981.08
2017-04-21T03:49:25.972Z,981.1
2017-04-21T03:50:35.037Z,981.09
2017-04-21T03:51:44.099Z,981.08
2017-04-21T03:52:52.861Z,981.05
2017-04-21T03:54:02.221Z,981.09
2017-04-21T03:55:11.232Z,981.11
2017-04-21T03:56:20.759Z,981.16
2017-04-21T03:57:29.615Z,981.12
2017-04-21T03:58:38.631Z,981.06
2017-04-21T03:59:48.037Z,981.08
2017-04-21T04:00:57.179Z,981.04
2017-04-21T04:02:06.057Z,981.05
2017-04-21T04:03:14.789Z,981.09
2017-04-21T04:04:24.174Z,981.06
2017-04-21T04:05:33.244Z,981.01
2017-04-21T04:06:42.015Z,981.01
2017-04-21T04:07:51.083Z,981.01
2017-04-21T04:09:00.764Z,981.05
2017-04-21T04:10:10.756Z,980.98
2017-04-21T04:11:19.526Z,981
2017-04-21T04:12:28.636Z,981.01
2017-04-21T04:13:37.713Z,981.02
2017-04-21T04:14:46.788Z,981.02
2017-04-21T04:15:56.773Z,981.04
2017-04-21T04:17:05.815Z,981.06
2017-04-21T04:18:14.518Z,981.02
2017-04-21T04:19:23.830Z,980.97
2017-04-21T04:20:32.542Z,981.01
2017-04-21T04:21:41.316Z,980.99
2017-04-21T04:22:50.379Z,981
2017-04-21T04:23:59.704Z,980.96
2017-04-21T04:25:08.452Z,980.97
2017-04-21T04:26:17.765Z,980.97
2017-04-21T04:27:26.576Z,981
2017-04-21T04:28:35.946Z,981
2017-04-21T04:29:44.713Z,981.02
2017-04-21T04:30:53.473Z,981
2017-04-21T04:32:02.492Z,981.04
2017-04-21T04:33:11.210Z,981.05
2017-04-21T04:34:20.281Z,981.04
2017-04-21T04:35:29.050Z,981.02
2017-04-21T04:36:37.813Z,981.02
2017-04-21T04:37:46.520Z,980.99
2017-04-21T04:38:55.229Z,981.04
2017-04-21T04:40:04.307Z,981
2017-04-21T04:41:13.678Z,981.01
2017-04-21T04:42:22.454Z,980.99
2017-04-21T04:43:31.166Z,980.97
2017-04-21T04:44:40.851Z,980.98
2017-04-21T04:45:50.230Z,980.97
2017-04-21T04:46:58.997Z,980.97
2017-04-21T04:48:07.750Z,980.97
2017-04-21T04:49:17.392Z,980.94
2017-04-21T04:50:27.120Z,980.99
2017-04-21T04:51:36.499Z,980.92
2017-04-21T04:52:45.258Z,980.94
2017-04-21T04:53:54.635Z,980.95
2017-04-21T04:55:04.001Z,980.94
2017-04-21T04:56:13.671Z,980.94
2017-04-21T04:57:22.424Z,980.93
2017-04-21T04:58:31.498Z,980.97
2017-04-21T04:59:40.579Z,980.95
2017-04-21T05:00:49.906Z,980.97
2017-04-21T05:01:58.694Z,980.96
2017-04-21T05:03:07.658Z,980.98
2017-04-21T05:04:16.734Z,980.95
2017-04-21T05:05:25.917Z,980.97
2017-04-21T05:06:34.717Z,980.93
2017-04-21T05:07:45.328Z,980.98
2017-04-21T05:08:54.891Z,981
2017-04-21T05:10:04.339Z,981
2017-04-21T05:11:13.509Z,980.99
2017-04-21T05:12:23.197Z,980.98
2017-04-21T05:13:32.576Z,981.02
2017-04-21T05:14:41.642Z,980.98
2017-04-21T05:15:50.651Z,981.04
2017-04-21T05:16:59.722Z,981.03
2017-04-21T05:18:08.481Z,981.02
2017-04-21T05:19:17.858Z,981.05
2017-04-21T05:20:26.619Z,981.05
2017-04-21T05:21:35.384Z,981.07
2017-04-21T05:22:44.747Z,981.07
2017-04-21T05:23:54.065Z,981.06
2017-04-21T05:25:03.144Z,981.09
2017-04-21T05:26:12.509Z,981.08
2017-04-21T05:27:21.248Z,981.1
2017-04-21T05:28:30.624Z,981.09
2017-04-21T05:29:39.390Z,981.08
2017-04-21T05:30:48.461Z,981.07
2017-04-21T05:31:57.219Z,981.09
2017-04-21T05:33:06.303Z,981.07
2017-04-21T05:34:15.980Z,981.11
2017-04-21T05:35:25.002Z,981.1
2017-04-21T05:36:34.075Z,981.08
2017-04-21T05:37:43.051Z,981.1
2017-04-21T05:38:52.124Z,981.1
2017-04-21T05:40:01.503Z,981.11
2017-04-21T05:41:10.564Z,981.11
2017-04-21T05:42:19.581Z,981.12
2017-04-21T05:43:28.554Z,981.07
2017-04-21T05:44:37.631Z,981.1
2017-04-21T05:45:46.707Z,981.1
2017-04-21T05:46:55.473Z,981.09
2017-04-21T05:48:04.236Z,981.09
2017-04-21T05:49:13.002Z,981.06
2017-04-21T05:50:22.634Z,981.11
2017-04-21T05:51:31.347Z,981.12
2017-04-21T05:52:40.376Z,981.12
2017-04-21T05:53:49.135Z,981.12
2017-04-21T05:54:58.527Z,981.11
2017-04-21T05:56:07.583Z,981.1
2017-04-21T05:57:16.301Z,981.09
2017-04-21T05:58:25.381Z,981.08
2017-04-21T05:59:34.436Z,981.12
2017-04-21T06:00:43.501Z,981.08
2017-04-21T06:01:52.884Z,981.11
2017-04-21T06:03:01.952Z,981.11
2017-04-21T06:04:11.275Z,981.12
2017-04-21T06:05:20.968Z,981.1
2017-04-21T06:06:29.735Z,981.11
2017-04-21T06:07:38.813Z,981.13
2017-04-21T06:08:48.192Z,981.12
2017-04-21T06:09:57.585Z,981.15
2017-04-21T06:11:06.960Z,981.14
2017-04-21T06:12:16.039Z,981.12
2017-04-21T06:13:25.406Z,981.11
2017-04-21T06:14:34.135Z,981.12
2017-04-21T06:15:43.520Z,981.09
2017-04-21T06:16:52.591Z,981.08
2017-04-21T06:18:01.355Z,981.05
2017-04-21T06:19:10.423Z,981.08
2017-04-21T06:20:19.896Z,981.04
2017-04-21T06:21:28.967Z,981.07
2017-04-21T06:22:38.115Z,981.07
2017-04-21T06:23:48.101Z,981.08
2017-04-21T06:24:57.791Z,981.02
2017-04-21T06:26:07.386Z,981.03
2017-04-21T06:27:16.400Z,981
2017-04-21T06:28:25.784Z,981.1
2017-04-21T06:29:34.857Z,981.09
2017-04-21T06:30:44.249Z,981.12
2017-04-21T06:31:53.010Z,981.1
2017-04-21T06:33:02.085Z,981.17
2017-04-21T06:34:10.845Z,981.14
2017-04-21T06:35:19.864Z,981.18
2017-04-21T06:36:30.211Z,981.15
2017-04-21T06:37:39.274Z,981.13
2017-04-21T06:38:48.373Z,981.15
2017-04-21T06:39:58.363Z,981.17
2017-04-21T06:41:07.744Z,981.14
2017-04-21T06:42:16.506Z,981.1
2017-04-21T06:43:25.258Z,981.14
2017-04-21T06:44:34.092Z,981.12
2017-04-21T06:45:42.857Z,981.12
2017-04-21T06:46:51.575Z,981.1
2017-04-21T06:48:00.935Z,981.09
2017-04-21T06:49:09.652Z,981.09
2017-04-21T06:50:18.428Z,981.11
2017-04-21T06:51:27.199Z,981.11
2017-04-21T06:52:35.960Z,981.07
2017-04-21T06:53:45.036Z,981.05
2017-04-21T06:54:54.108Z,981.09
2017-04-21T06:56:03.491Z,981.04
2017-04-21T06:57:12.239Z,981.06
2017-04-21T06:58:21.012Z,981.02
2017-04-21T06:59:30.184Z,981.05
2017-04-21T07:00:39.872Z,981.05
2017-04-21T07:01:48.953Z,981.09
2017-04-21T07:02:58.042Z,981.05
2017-04-21T07:04:07.723Z,981.03
2017-04-21T07:05:17.087Z,981.05
2017-04-21T07:06:25.808Z,981.01
2017-04-21T07:07:34.890Z,981.03
2017-04-21T07:08:43.972Z,981.03
2017-04-21T07:09:53.635Z,981.04
2017-04-21T07:11:03.327Z,981
2017-04-21T07:12:12.695Z,981.01
2017-04-21T07:13:22.081Z,980.99
2017-04-21T07:14:31.468Z,980.98
2017-04-21T07:15:40.238Z,980.95
2017-04-21T07:16:49.004Z,981
2017-04-21T07:17:57.783Z,981
2017-04-21T07:19:07.165Z,981.03
2017-04-21T07:20:16.305Z,980.98
2017-04-21T07:21:25.019Z,981
2017-04-21T07:22:33.791Z,981.03
2017-04-21T07:23:43.247Z,981.04
2017-04-21T07:24:52.941Z,981.06
2017-04-21T07:26:02.457Z,981.07
2017-04-21T07:27:11.484Z,981.06
2017-04-21T07:28:21.258Z,981.1
2017-04-21T07:29:30.651Z,981.07
2017-04-21T07:30:39.430Z,981.08
2017-04-21T07:31:48.518Z,981.08
2017-04-21T07:32:57.278Z,981.1
2017-04-21T07:34:06.052Z,981.11
2017-04-21T07:35:15.119Z,981.06
2017-04-21T07:36:23.888Z,981.08
2017-04-21T07:37:32.909Z,981.04
2017-04-21T07:38:42.278Z,981.06
2017-04-21T07:40:02.957Z,981.11
2017-04-21T07:41:11.855Z,981.09
2017-04-21T07:42:20.944Z,981.08
2017-04-21T07:43:29.776Z,981.1
2017-04-21T07:44:39.439Z,981.12
2017-04-21T07:45:48.147Z,981.06
2017-04-21T07:46:56.915Z,981.11
2017-04-21T07:48:06.291Z,981.09
2017-04-21T07:49:15.052Z,981.11
2017-04-21T07:50:24.383Z,981.13
2017-04-21T07:51:33.446Z,981.1
2017-04-21T07:52:42.211Z,981.08
2017-04-21T07:53:51.282Z,981.12
2017-04-21T07:55:00.666Z,981.05
2017-04-21T07:56:10.338Z,981.12
2017-04-21T07:57:19.693Z,981.13
2017-04-21T07:58:29.269Z,981.1
2017-04-21T07:59:38.351Z,981.16
2017-04-21T08:00:47.437Z,981.12
2017-04-21T08:02:24.355Z,981.11
2017-04-21T08:03:33.422Z,981.18
2017-04-21T08:04:42.740Z,981.19
2017-04-21T08:05:51.819Z,981.18
2017-04-21T08:07:00.605Z,981.15
2017-04-21T08:08:09.373Z,981.17
2017-04-21T08:09:18.448Z,981.12
2017-04-21T08:10:27.266Z,981.1
2017-04-21T08:11:36.032Z,981.11
2017-04-21T08:12:44.797Z,981.13
2017-04-21T08:13:54.193Z,981.1
2017-04-21T08:15:03.266Z,981.12
2017-04-21T08:16:12.039Z,981.12
2017-04-21T08:17:20.800Z,981.08
2017-04-21T08:18:29.864Z,981.12
2017-04-21T08:19:38.936Z,981.02
2017-04-21T08:20:48.604Z,981.05
2017-04-21T08:21:57.619Z,981.07
2017-04-21T08:23:06.695Z,981.05
2017-04-21T08:24:15.774Z,981.01
2017-04-21T08:25:24.531Z,981.02
2017-04-21T08:26:33.749Z,981.05
2017-04-21T08:27:42.514Z,981.02
2017-04-21T08:28:52.196Z,981.01
2017-04-21T08:30:01.213Z,981.04
2017-04-21T08:31:09.985Z,981.1
2017-04-21T08:32:18.753Z,981.06
2017-04-21T08:33:27.846Z,981.06
2017-04-21T08:34:37.533Z,981.06
2017-04-21T08:35:46.311Z,981.04
2017-04-21T08:36:55.080Z,981.07
2017-04-21T08:38:03.849Z,981.05
2017-04-21T08:39:13.224Z,981.05
2017-04-21T08:40:22.606Z,981.04
2017-04-21T08:41:31.376Z,981.09
2017-04-21T08:42:40.146Z,981.07
2017-04-21T08:43:49.167Z,981.05
2017-04-21T08:44:58.839Z,981.06
2017-04-21T08:46:07.535Z,981.03
2017-04-21T08:47:16.538Z,981.06
2017-04-21T08:48:25.255Z,981.06
2017-04-21T08:49:34.023Z,981.08
2017-04-21T08:50:43.089Z,981.09
2017-04-21T08:51:51.942Z,981.06
2017-04-21T08:53:01.315Z,981.07
2017-04-21T08:54:10.370Z,981.05
2017-04-21T08:55:19.106Z,981.05
2017-04-21T08:56:28.472Z,981.1
2017-04-21T08:57:37.847Z,981.11
2017-04-21T08:58:46.935Z,981.09
2017-04-21T08:59:56.329Z,981.07
2017-04-21T09:01:05.403Z,981.06
2017-04-21T09:02:14.476Z,981.13
2017-04-21T09:03:23.234Z,981.11
2017-04-21T09:04:32.569Z,981.09
2017-04-21T09:05:41.639Z,981.13
2017-04-21T09:06:50.711Z,981.1
2017-04-21T09:07:59.809Z,981.09
2017-04-21T09:09:09.199Z,981.14
2017-04-21T09:10:17.974Z,981.13
2017-04-21T09:11:26.824Z,981.11
2017-04-21T09:12:36.654Z,981.15
2017-04-21T09:13:45.675Z,981.12
2017-04-21T09:14:55.370Z,981.14
2017-04-21T09:16:04.876Z,981.11
2017-04-21T09:17:13.878Z,981.17
2017-04-21T09:18:22.594Z,981.15
2017-04-21T09:19:31.346Z,981.14
2017-04-21T09:20:40.725Z,981.11
2017-04-21T09:21:49.686Z,981.12
2017-04-21T09:22:58.404Z,981.13
2017-04-21T09:24:07.526Z,981.09
2017-04-21T09:25:16.529Z,981.09
2017-04-21T09:26:25.247Z,981.06
2017-04-21T09:27:34.333Z,981.08
2017-04-21T09:28:43.100Z,981.08
2017-04-21T09:29:52.227Z,981.04
2017-04-21T09:31:01.614Z,981.09
2017-04-21T09:34:29.715Z,981.04
2017-04-21T09:37:22.754Z,981.02
2017-04-21T09:38:51.800Z,980.99
2017-04-21T09:40:00.557Z,980.95
2017-04-21T09:41:09.568Z,980.96
2017-04-21T09:42:18.339Z,980.93
2017-04-21T09:44:50.155Z,980.91
2017-04-21T09:45:58.917Z,980.93
2017-04-21T09:47:07.934Z,980.92
2017-04-21T09:48:16.706Z,980.93
2017-04-21T09:49:25.774Z,980.91
2017-04-21T09:50:35.149Z,980.9
2017-04-21T09:51:43.905Z,980.88
2017-04-21T10:02:52.689Z,980.89
2017-04-21T10:09:37.690Z,980.88
2017-04-21T10:10:47.414Z,980.83
2017-04-21T10:11:56.180Z,980.82
2017-04-21T10:13:05.362Z,980.83
2017-04-21T10:14:14.107Z,980.84
2017-04-21T10:15:23.452Z,980.86
2017-04-21T10:16:32.227Z,980.81
2017-04-21T10:17:41.004Z,980.84
2017-04-21T10:18:50.075Z,980.79
2017-04-21T10:19:59.087Z,980.75
2017-04-21T10:21:08.164Z,980.74
2017-04-21T10:22:17.832Z,980.7
2017-04-21T10:23:27.157Z,980.69
2017-04-21T10:24:36.772Z,980.68
2017-04-21T10:25:46.131Z,980.68
2017-04-21T10:26:55.450Z,980.68
2017-04-21T10:28:04.207Z,980.67
2017-04-21T10:29:13.219Z,980.68
2017-04-21T10:30:22.522Z,980.62
2017-04-21T10:31:31.542Z,980.67
2017-04-21T10:32:40.346Z,980.64
2017-04-21T10:33:49.110Z,980.64
2017-04-21T10:34:58.186Z,980.59
2017-04-21T10:36:06.965Z,980.65
2017-04-21T10:37:15.730Z,980.54
2017-04-21T10:38:24.491Z,980.6
2017-04-21T10:39:34.173Z,980.6
2017-04-21T10:40:43.243Z,980.59
2017-04-21T10:41:52.010Z,980.69
2017-04-21T10:43:00.790Z,980.71
2017-04-21T10:44:10.180Z,980.59
2017-04-21T10:45:19.557Z,980.62
2017-04-21T10:46:28.315Z,980.58
2017-04-21T10:47:37.091Z,980.6
2017-04-21T10:48:46.800Z,980.64
2017-04-21T10:49:56.210Z,980.58
2017-04-21T10:51:05.518Z,980.54
2017-04-21T10:52:14.628Z,980.52
2017-04-21T10:53:24.732Z,980.51
2017-04-21T10:54:34.763Z,980.48
2017-04-21T10:55:43.774Z,980.5
2017-04-21T10:56:52.784Z,980.43
2017-04-21T10:58:01.796Z,980.49
2017-04-21T10:59:10.799Z,980.43
2017-04-21T11:00:19.811Z,980.51
2017-04-21T11:01:29.130Z,980.47
2017-04-21T11:02:38.140Z,980.5
2017-04-21T11:03:47.742Z,980.51
2017-04-21T11:04:56.905Z,980.44
2017-04-21T11:06:05.898Z,980.46
2017-04-21T11:07:14.596Z,980.49
2017-04-21T11:08:23.294Z,980.47
2017-04-21T11:09:32.300Z,980.38
2017-04-21T11:10:41.616Z,980.44
2017-04-21T11:11:50.626Z,980.36
2017-04-21T11:12:59.335Z,980.36
2017-04-21T11:14:08.391Z,980.35
2017-04-21T11:15:18.311Z,980.34
2017-04-21T11:16:28.045Z,980.42
2017-04-21T11:17:36.861Z,980.4
2017-04-21T11:18:46.755Z,980.3
2017-04-21T11:19:55.759Z,980.33
2017-04-21T11:21:04.814Z,980.26
2017-04-21T11:22:13.528Z,980.31
2017-04-21T11:23:22.230Z,980.26
2017-04-21T11:24:31.935Z,980.3
2017-04-21T11:25:40.637Z,980.26
2017-04-21T11:26:49.355Z,980.24
2017-04-21T11:27:58.434Z,980.23
2017-04-21T11:29:07.490Z,980.23
2017-04-21T11:30:16.516Z,980.25
2017-04-21T11:31:26.195Z,980.18
2017-04-21T11:32:35.276Z,980.17
2017-04-21T11:33:44.638Z,980.18
2017-04-21T11:34:53.643Z,980.15
2017-04-21T11:36:02.976Z,980.21
2017-04-21T11:37:12.039Z,980.18
2017-04-21T11:38:21.277Z,980.19
2017-04-21T11:39:30.268Z,980.13
2017-04-21T11:40:39.157Z,980.14
2017-04-21T11:41:47.973Z,980.11
2017-04-21T11:42:56.732Z,980.15
2017-04-21T11:44:05.508Z,980.17
2017-04-21T11:45:14.292Z,980.1
2017-04-21T11:46:23.435Z,980.14
2017-04-21T11:47:32.205Z,980.09
2017-04-21T11:48:40.982Z,980.05
2017-04-21T11:49:50.060Z,980.12
2017-04-21T11:50:59.429Z,980.07
2017-04-21T11:52:08.822Z,980.06
2017-04-21T11:53:17.564Z,980.04
2017-04-21T11:54:26.575Z,980.04
2017-04-21T11:55:35.341Z,980.09
2017-04-21T11:56:44.413Z,980.01
2017-04-21T11:57:53.177Z,980.02
2017-04-21T11:59:02.188Z,980.06
2017-04-21T12:00:11.273Z,980.06
2017-04-21T12:01:20.647Z,980
2017-04-21T12:02:30.022Z,980.04
2017-04-21T12:03:39.098Z,980.04
2017-04-21T12:04:47.853Z,980
2017-04-21T12:05:56.554Z,979.98
2017-04-21T12:07:05.268Z,979.97
2017-04-21T12:08:14.328Z,979.98
2017-04-21T12:09:23.330Z,979.98
2017-04-21T12:10:32.653Z,979.94
2017-04-21T12:11:41.420Z,979.97
2017-04-21T12:12:50.200Z,979.94
2017-04-21T12:13:59.584Z,979.92
2017-04-21T12:15:09.568Z,979.88
2017-04-21T12:16:18.638Z,979.9
2017-04-21T12:17:27.716Z,979.9
2017-04-21T12:18:37.098Z,979.88
2017-04-21T12:19:46.785Z,979.86
2017-04-21T12:20:55.553Z,979.91
2017-04-21T12:22:04.323Z,979.86
2017-04-21T12:23:13.402Z,979.83
2017-04-21T12:24:22.470Z,979.78
2017-04-21T12:25:32.089Z,979.8
2017-04-21T12:26:40.832Z,979.76
2017-04-21T12:27:49.599Z,979.75
2017-04-21T12:28:58.680Z,979.76
2017-04-21T12:30:07.466Z,979.7
2017-04-21T12:31:16.234Z,979.69
2017-04-21T12:32:25.003Z,979.63
2017-04-21T12:33:34.686Z,979.63
2017-04-21T12:34:43.750Z,979.59
2017-04-21T12:35:53.668Z,979.55
2017-04-21T12:37:02.792Z,979.65
2017-04-21T12:38:11.866Z,979.58
2017-04-21T12:39:20.639Z,979.56
2017-04-21T12:40:30.636Z,979.57
2017-04-21T12:41:39.415Z,979.52
2017-04-21T12:42:48.495Z,979.51
2017-04-21T12:43:57.877Z,979.56
2017-04-21T12:45:06.631Z,979.58
2017-04-21T12:46:15.959Z,979.56
2017-04-21T12:47:25.346Z,979.61
2017-04-21T12:48:34.762Z,979.58
2017-04-21T12:49:43.789Z,979.54
2017-04-21T12:50:53.479Z,979.53
2017-04-21T12:52:02.865Z,979.52
2017-04-21T12:53:11.925Z,979.48
2017-04-21T12:54:20.953Z,979.45
2017-04-21T12:55:30.629Z,979.43
2017-04-21T12:56:39.395Z,979.44
2017-04-21T12:57:48.176Z,979.45
2017-04-21T12:58:57.555Z,979.42
2017-04-21T13:00:06.631Z,979.39
2017-04-21T13:01:15.403Z,979.4
2017-04-21T13:02:24.157Z,979.37
2017-04-21T13:03:33.172Z,979.36
2017-04-21T13:04:43.155Z,979.4
2017-04-21T13:05:52.222Z,979.35
2017-04-21T13:07:00.992Z,979.34
2017-04-21T13:08:42.148Z,979.29
2017-04-21T13:09:51.983Z,979.28
2017-04-21T13:11:01.652Z,979.25
2017-04-21T13:12:10.733Z,979.25
2017-04-21T13:13:19.812Z,979.25
2017-04-21T13:14:28.881Z,979.22
2017-04-21T13:15:38.245Z,979.22
2017-04-21T13:16:47.906Z,979.21
2017-04-21T13:17:56.970Z,979.22
2017-04-21T13:19:06.051Z,979.2
2017-04-21T13:20:14.823Z,979.24
2017-04-21T13:21:23.894Z,979.23
2017-04-21T13:22:32.768Z,979.25
2017-04-21T13:23:41.536Z,979.18
2017-04-21T13:24:50.592Z,979.14
2017-04-21T13:25:59.608Z,979.12
2017-04-21T13:27:08.380Z,979.12
2017-04-21T13:28:17.460Z,979.11
2017-04-21T13:29:27.132Z,979.12
2017-04-21T13:30:36.457Z,979.1
2017-04-21T13:31:45.531Z,979.08
2017-04-21T13:32:54.251Z,979.06
2017-04-21T13:34:03.631Z,979.05
2017-04-21T13:35:13.004Z,979.02
2017-04-21T13:36:22.076Z,979.05
2017-04-21T13:37:31.145Z,979.02
2017-04-21T13:38:40.213Z,979.01
2017-04-21T13:39:50.513Z,978.97
2017-04-21T13:40:59.575Z,979.01
2017-04-21T13:42:08.649Z,978.98
2017-04-21T13:43:18.017Z,978.98
2017-04-21T13:44:26.781Z,978.96
2017-04-21T13:45:35.556Z,978.96
2017-04-21T13:46:44.316Z,978.94
2017-04-21T13:47:53.085Z,978.93
2017-04-21T13:49:03.083Z,978.87
2017-04-21T13:50:12.462Z,978.86
2017-04-21T13:51:21.231Z,978.85
2017-04-21T13:52:30.284Z,978.84
2017-04-21T13:53:39.340Z,978.87
2017-04-21T13:54:48.117Z,978.83
2017-04-21T13:55:57.192Z,978.86
2017-04-21T13:57:05.983Z,978.82
2017-04-21T13:58:14.758Z,978.86
2017-04-21T13:59:23.835Z,978.8
2017-04-21T14:00:32.609Z,978.8
2017-04-21T14:01:41.377Z,978.78
2017-04-21T14:02:50.162Z,978.74
2017-04-21T14:03:58.892Z,978.75
2017-04-21T14:05:07.650Z,978.74
2017-04-21T14:06:16.725Z,978.67
2017-04-21T14:07:25.798Z,978.67
2017-04-21T14:08:34.861Z,978.66
2017-04-21T14:09:44.200Z,978.63
2017-04-21T14:10:52.973Z,978.63
2017-04-21T14:12:02.643Z,978.62
2017-04-21T14:13:11.383Z,978.59
2017-04-21T14:14:20.439Z,978.56
2017-04-21T14:15:29.814Z,978.54
2017-04-21T14:16:38.579Z,978.52
2017-04-21T14:17:47.350Z,978.45
2017-04-21T14:18:56.667Z,978.48
2017-04-21T14:20:05.436Z,978.49
2017-04-21T14:21:14.193Z,978.43
2017-04-21T14:22:23.224Z,978.45
2017-04-21T14:23:32.506Z,978.4
2017-04-21T14:24:41.890Z,978.4
2017-04-21T14:25:50.667Z,978.39
2017-04-21T14:26:59.740Z,978.32
2017-04-21T14:28:08.506Z,978.3
2017-04-21T14:29:17.881Z,978.28
2017-04-21T14:30:26.956Z,978.29
2017-04-21T14:31:36.030Z,978.24
2017-04-21T14:32:44.801Z,978.28
2017-04-21T14:33:53.567Z,978.24
2017-04-21T14:35:02.935Z,978.2
2017-04-21T14:36:11.650Z,978.19
2017-04-21T14:37:20.711Z,978.18
2017-04-21T14:38:30.075Z,978.16
2017-04-21T14:39:39.101Z,978.12
2017-04-21T14:40:48.191Z,978.16
2017-04-21T14:41:57.605Z,978.12
2017-04-21T14:43:06.671Z,978.1
2017-04-21T14:44:15.752Z,978.07
2017-04-21T14:45:24.519Z,978.1
2017-04-21T14:46:33.292Z,978.08
2017-04-21T14:47:42.371Z,978.11
2017-04-21T14:48:51.973Z,978.03